sensor_id;sensor_type;location;lat;lon;timestamp;P1;durP1;ratioP1;P2;durP2;ratioP2
29720;SDS011;23665;51.044;3.748;2023-02-03T00:00:45;11.47;;;3.87;;
29720;SDS011;23665;51.044;3.748;2023-02-03T00:03:11;17.80;;;3.20;;
29720;SDS011;23665;51.044;3.748;2023-02-03T00:05:37;11.57;;;3.77;;
29720;SDS011;23665;51.044;3.748;2023-02-03T00:08:04;12.37;;;2.93;;
29720;SDS011;23665;51.044;3.748;2023-02-03T00:10:32;17.73;;;4.37;;
29720;SDS011;23665;51.044;3.748;2023-02-03T00:12:59;13.67;;;3.00;;
29720;SDS011;23665;51.044;3.748;2023-02-03T00:15:25;13.73;;;3.30;;
29720;SDS011;23665;51.044;3.748;2023-02-03T00:17:51;11.53;;;3.50;;
29720;SDS011;23665;51.044;3.748;2023-02-03T00:20:17;16.10;;;3.30;;
29720;SDS011;23665;51.044;3.748;2023-02-03T00:22:43;9.20;;;3.00;;
29720;SDS011;23665;51.044;3.748;2023-02-03T00:25:09;10.63;;;3.17;;
29720;SDS011;23665;51.044;3.748;2023-02-03T00:27:34;11.33;;;3.67;;
29720;SDS011;23665;51.044;3.748;2023-02-03T00:30:00;14.13;;;3.80;;
29720;SDS011;23665;51.044;3.748;2023-02-03T00:32:26;11.07;;;3.10;;
29720;SDS011;23665;51.044;3.748;2023-02-03T00:34:53;12.63;;;3.50;;
29720;SDS011;23665;51.044;3.748;2023-02-03T00:37:18;11.63;;;2.63;;
29720;SDS011;23665;51.044;3.748;2023-02-03T00:39:44;13.50;;;2.73;;
29720;SDS011;23665;51.044;3.748;2023-02-03T00:42:10;19.80;;;2.97;;
29720;SDS011;23665;51.044;3.748;2023-02-03T00:44:35;8.23;;;2.13;;
29720;SDS011;23665;51.044;3.748;2023-02-03T00:47:01;9.80;;;2.20;;
29720;SDS011;23665;51.044;3.748;2023-02-03T00:49:27;16.03;;;2.63;;
29720;SDS011;23665;51.044;3.748;2023-02-03T00:51:52;9.87;;;2.40;;
29720;SDS011;23665;51.044;3.748;2023-02-03T00:54:18;8.20;;;2.07;;
29720;SDS011;23665;51.044;3.748;2023-02-03T00:56:44;13.47;;;2.17;;
29720;SDS011;23665;51.044;3.748;2023-02-03T00:59:09;11.30;;;2.10;;
29720;SDS011;23665;51.044;3.748;2023-02-03T01:01:35;11.37;;;2.20;;
29720;SDS011;23665;51.044;3.748;2023-02-03T01:04:01;11.70;;;2.27;;
29720;SDS011;23665;51.044;3.748;2023-02-03T01:06:28;11.40;;;2.50;;
29720;SDS011;23665;51.044;3.748;2023-02-03T01:08:54;7.77;;;2.10;;
29720;SDS011;23665;51.044;3.748;2023-02-03T01:11:23;10.13;;;2.37;;
29720;SDS011;23665;51.044;3.748;2023-02-03T01:13:52;15.90;;;2.47;;
29720;SDS011;23665;51.044;3.748;2023-02-03T01:16:23;8.90;;;2.13;;
29720;SDS011;23665;51.044;3.748;2023-02-03T01:18:49;13.97;;;2.17;;
29720;SDS011;23665;51.044;3.748;2023-02-03T01:21:17;10.57;;;2.07;;
29720;SDS011;23665;51.044;3.748;2023-02-03T01:23:44;11.87;;;3.30;;
29720;SDS011;23665;51.044;3.748;2023-02-03T01:26:12;7.23;;;1.77;;
29720;SDS011;23665;51.044;3.748;2023-02-03T01:28:39;7.30;;;1.90;;
29720;SDS011;23665;51.044;3.748;2023-02-03T01:31:09;7.97;;;1.90;;
29720;SDS011;23665;51.044;3.748;2023-02-03T01:33:39;10.03;;;1.87;;
29720;SDS011;23665;51.044;3.748;2023-02-03T01:36:09;10.77;;;1.87;;
29720;SDS011;23665;51.044;3.748;2023-02-03T01:38:35;10.93;;;2.70;;
29720;SDS011;23665;51.044;3.748;2023-02-03T01:41:02;15.40;;;1.93;;
29720;SDS011;23665;51.044;3.748;2023-02-03T01:43:29;8.73;;;2.53;;
29720;SDS011;23665;51.044;3.748;2023-02-03T01:48:52;9.37;;;1.80;;
29720;SDS011;23665;51.044;3.748;2023-02-03T01:51:32;12.20;;;2.30;;
29720;SDS011;23665;51.044;3.748;2023-02-03T01:53:59;10.33;;;1.77;;
29720;SDS011;23665;51.044;3.748;2023-02-03T01:56:26;9.97;;;1.93;;
29720;SDS011;23665;51.044;3.748;2023-02-03T01:58:56;14.50;;;2.27;;
29720;SDS011;23665;51.044;3.748;2023-02-03T02:01:24;6.73;;;1.60;;
29720;SDS011;23665;51.044;3.748;2023-02-03T02:03:54;9.47;;;1.93;;
29720;SDS011;23665;51.044;3.748;2023-02-03T02:06:22;9.70;;;1.90;;
29720;SDS011;23665;51.044;3.748;2023-02-03T02:08:49;12.57;;;1.83;;
29720;SDS011;23665;51.044;3.748;2023-02-03T02:11:17;11.70;;;1.90;;
29720;SDS011;23665;51.044;3.748;2023-02-03T02:13:45;6.17;;;1.90;;
29720;SDS011;23665;51.044;3.748;2023-02-03T02:16:17;14.43;;;2.10;;
29720;SDS011;23665;51.044;3.748;2023-02-03T02:22:23;7.37;;;1.63;;
29720;SDS011;23665;51.044;3.748;2023-02-03T02:33:58;7.97;;;1.40;;
29720;SDS011;23665;51.044;3.748;2023-02-03T02:36:31;8.83;;;1.50;;
29720;SDS011;23665;51.044;3.748;2023-02-03T02:39:11;8.53;;;1.87;;
29720;SDS011;23665;51.044;3.748;2023-02-03T02:44:15;7.03;;;1.60;;
29720;SDS011;23665;51.044;3.748;2023-02-03T02:46:49;6.53;;;1.70;;
29720;SDS011;23665;51.044;3.748;2023-02-03T02:49:19;12.50;;;1.93;;
29720;SDS011;23665;51.044;3.748;2023-02-03T02:51:52;11.27;;;1.63;;
29720;SDS011;23665;51.044;3.748;2023-02-03T02:54:20;12.87;;;2.17;;
29720;SDS011;23665;51.044;3.748;2023-02-03T02:56:48;10.83;;;2.27;;
29720;SDS011;23665;51.044;3.748;2023-02-03T02:59:18;12.20;;;1.90;;
29720;SDS011;23665;51.044;3.748;2023-02-03T03:01:44;10.63;;;1.77;;
29720;SDS011;23665;51.044;3.748;2023-02-03T03:04:10;8.90;;;2.23;;
29720;SDS011;23665;51.044;3.748;2023-02-03T03:06:40;8.63;;;2.03;;
29720;SDS011;23665;51.044;3.748;2023-02-03T03:09:20;7.77;;;1.83;;
29720;SDS011;23665;51.044;3.748;2023-02-03T03:11:55;6.53;;;1.43;;
29720;SDS011;23665;51.044;3.748;2023-02-03T03:14:24;13.03;;;1.60;;
29720;SDS011;23665;51.044;3.748;2023-02-03T03:16:53;7.20;;;1.53;;
29720;SDS011;23665;51.044;3.748;2023-02-03T03:19:25;6.23;;;1.40;;
29720;SDS011;23665;51.044;3.748;2023-02-03T03:21:58;5.67;;;1.37;;
29720;SDS011;23665;51.044;3.748;2023-02-03T03:24:27;7.87;;;1.60;;
29720;SDS011;23665;51.044;3.748;2023-02-03T03:27:21;6.53;;;1.73;;
29720;SDS011;23665;51.044;3.748;2023-02-03T03:29:59;5.03;;;1.23;;
29720;SDS011;23665;51.044;3.748;2023-02-03T03:32:37;5.00;;;1.63;;
29720;SDS011;23665;51.044;3.748;2023-02-03T03:35:03;9.17;;;1.30;;
29720;SDS011;23665;51.044;3.748;2023-02-03T03:37:32;7.20;;;1.30;;
29720;SDS011;23665;51.044;3.748;2023-02-03T03:40:10;6.03;;;1.70;;
29720;SDS011;23665;51.044;3.748;2023-02-03T03:48:08;8.23;;;1.50;;
29720;SDS011;23665;51.044;3.748;2023-02-03T03:50:52;10.67;;;1.47;;
29720;SDS011;23665;51.044;3.748;2023-02-03T03:53:24;2.03;;;0.90;;
29720;SDS011;23665;51.044;3.748;2023-02-03T03:55:51;4.70;;;1.10;;
29720;SDS011;23665;51.044;3.748;2023-02-03T03:58:23;6.50;;;1.40;;
29720;SDS011;23665;51.044;3.748;2023-02-03T04:00:57;6.27;;;1.83;;
29720;SDS011;23665;51.044;3.748;2023-02-03T04:03:31;8.13;;;1.40;;
29720;SDS011;23665;51.044;3.748;2023-02-03T04:06:03;5.10;;;1.10;;
29720;SDS011;23665;51.044;3.748;2023-02-03T04:08:29;9.03;;;1.57;;
29720;SDS011;23665;51.044;3.748;2023-02-03T04:10:54;9.80;;;1.40;;
29720;SDS011;23665;51.044;3.748;2023-02-03T04:13:20;7.90;;;1.73;;
29720;SDS011;23665;51.044;3.748;2023-02-03T04:15:45;7.10;;;1.50;;
29720;SDS011;23665;51.044;3.748;2023-02-03T04:18:12;7.37;;;1.97;;
29720;SDS011;23665;51.044;3.748;2023-02-03T04:20:39;1.60;;;0.90;;
29720;SDS011;23665;51.044;3.748;2023-02-03T04:23:04;9.27;;;1.37;;
29720;SDS011;23665;51.044;3.748;2023-02-03T04:25:30;5.43;;;1.20;;
29720;SDS011;23665;51.044;3.748;2023-02-03T04:27:56;5.73;;;1.67;;
29720;SDS011;23665;51.044;3.748;2023-02-03T04:30:22;7.20;;;1.67;;
29720;SDS011;23665;51.044;3.748;2023-02-03T04:32:48;6.33;;;1.13;;
29720;SDS011;23665;51.044;3.748;2023-02-03T04:35:14;5.17;;;1.30;;
29720;SDS011;23665;51.044;3.748;2023-02-03T04:37:39;10.60;;;1.80;;
29720;SDS011;23665;51.044;3.748;2023-02-03T04:40:06;6.70;;;1.40;;
29720;SDS011;23665;51.044;3.748;2023-02-03T04:42:32;4.13;;;1.23;;
29720;SDS011;23665;51.044;3.748;2023-02-03T04:45:02;8.00;;;1.47;;
29720;SDS011;23665;51.044;3.748;2023-02-03T04:47:29;7.23;;;1.23;;
29720;SDS011;23665;51.044;3.748;2023-02-03T04:49:54;4.03;;;1.20;;
29720;SDS011;23665;51.044;3.748;2023-02-03T04:52:20;5.77;;;1.47;;
29720;SDS011;23665;51.044;3.748;2023-02-03T04:54:46;5.70;;;1.57;;
29720;SDS011;23665;51.044;3.748;2023-02-03T04:57:11;8.47;;;1.77;;
29720;SDS011;23665;51.044;3.748;2023-02-03T04:59:37;12.53;;;3.07;;
29720;SDS011;23665;51.044;3.748;2023-02-03T05:02:03;11.30;;;2.03;;
29720;SDS011;23665;51.044;3.748;2023-02-03T05:04:29;5.83;;;1.10;;
29720;SDS011;23665;51.044;3.748;2023-02-03T05:06:55;6.90;;;1.47;;
29720;SDS011;23665;51.044;3.748;2023-02-03T05:09:21;4.77;;;1.30;;
29720;SDS011;23665;51.044;3.748;2023-02-03T05:11:48;6.33;;;1.13;;
29720;SDS011;23665;51.044;3.748;2023-02-03T05:14:13;7.03;;;1.53;;
29720;SDS011;23665;51.044;3.748;2023-02-03T05:16:39;7.03;;;1.20;;
29720;SDS011;23665;51.044;3.748;2023-02-03T05:19:05;10.63;;;1.73;;
29720;SDS011;23665;51.044;3.748;2023-02-03T05:21:31;8.93;;;1.63;;
29720;SDS011;23665;51.044;3.748;2023-02-03T05:23:57;5.77;;;1.13;;
29720;SDS011;23665;51.044;3.748;2023-02-03T05:26:22;7.57;;;1.87;;
29720;SDS011;23665;51.044;3.748;2023-02-03T05:28:48;5.70;;;1.10;;
29720;SDS011;23665;51.044;3.748;2023-02-03T05:31:14;6.40;;;1.27;;
29720;SDS011;23665;51.044;3.748;2023-02-03T05:33:39;3.60;;;0.90;;
29720;SDS011;23665;51.044;3.748;2023-02-03T05:36:05;9.10;;;1.67;;
29720;SDS011;23665;51.044;3.748;2023-02-03T05:38:31;6.90;;;1.20;;
29720;SDS011;23665;51.044;3.748;2023-02-03T05:40:57;6.87;;;1.57;;
29720;SDS011;23665;51.044;3.748;2023-02-03T05:43:41;6.70;;;1.87;;
29720;SDS011;23665;51.044;3.748;2023-02-03T05:46:06;6.33;;;1.67;;
29720;SDS011;23665;51.044;3.748;2023-02-03T05:48:32;5.00;;;1.30;;
29720;SDS011;23665;51.044;3.748;2023-02-03T05:50:58;7.07;;;1.50;;
29720;SDS011;23665;51.044;3.748;2023-02-03T05:53:24;6.17;;;1.43;;
29720;SDS011;23665;51.044;3.748;2023-02-03T05:55:51;4.97;;;1.20;;
29720;SDS011;23665;51.044;3.748;2023-02-03T05:58:17;2.90;;;1.17;;
29720;SDS011;23665;51.044;3.748;2023-02-03T06:00:42;9.03;;;2.03;;
29720;SDS011;23665;51.044;3.748;2023-02-03T06:03:09;6.00;;;1.53;;
29720;SDS011;23665;51.044;3.748;2023-02-03T06:05:34;5.93;;;1.40;;
29720;SDS011;23665;51.044;3.748;2023-02-03T06:08:04;8.27;;;1.60;;
29720;SDS011;23665;51.044;3.748;2023-02-03T06:10:31;2.77;;;1.30;;
29720;SDS011;23665;51.044;3.748;2023-02-03T06:12:57;8.87;;;2.33;;
29720;SDS011;23665;51.044;3.748;2023-02-03T06:15:23;4.47;;;1.30;;
29720;SDS011;23665;51.044;3.748;2023-02-03T06:17:48;8.77;;;2.03;;
29720;SDS011;23665;51.044;3.748;2023-02-03T06:20:15;7.13;;;1.47;;
29720;SDS011;23665;51.044;3.748;2023-02-03T06:22:42;4.13;;;1.10;;
29720;SDS011;23665;51.044;3.748;2023-02-03T06:25:08;6.27;;;1.87;;
29720;SDS011;23665;51.044;3.748;2023-02-03T06:27:35;5.00;;;1.20;;
29720;SDS011;23665;51.044;3.748;2023-02-03T06:30:01;6.37;;;1.53;;
29720;SDS011;23665;51.044;3.748;2023-02-03T06:32:27;4.43;;;1.03;;
29720;SDS011;23665;51.044;3.748;2023-02-03T06:34:52;5.00;;;1.50;;
29720;SDS011;23665;51.044;3.748;2023-02-03T06:37:18;8.63;;;1.40;;
29720;SDS011;23665;51.044;3.748;2023-02-03T06:39:44;7.37;;;1.60;;
29720;SDS011;23665;51.044;3.748;2023-02-03T06:42:10;13.97;;;1.70;;
29720;SDS011;23665;51.044;3.748;2023-02-03T06:44:35;4.47;;;1.57;;
29720;SDS011;23665;51.044;3.748;2023-02-03T06:47:01;8.87;;;1.40;;
29720;SDS011;23665;51.044;3.748;2023-02-03T06:49:27;4.57;;;1.50;;
29720;SDS011;23665;51.044;3.748;2023-02-03T06:51:54;6.57;;;1.10;;
29720;SDS011;23665;51.044;3.748;2023-02-03T06:54:20;9.40;;;1.80;;
29720;SDS011;23665;51.044;3.748;2023-02-03T06:56:45;8.20;;;2.40;;
29720;SDS011;23665;51.044;3.748;2023-02-03T06:59:11;4.40;;;1.60;;
29720;SDS011;23665;51.044;3.748;2023-02-03T07:01:37;7.40;;;1.77;;
29720;SDS011;23665;51.044;3.748;2023-02-03T07:04:03;4.30;;;1.20;;
29720;SDS011;23665;51.044;3.748;2023-02-03T07:06:29;7.70;;;1.60;;
29720;SDS011;23665;51.044;3.748;2023-02-03T07:08:58;4.60;;;1.33;;
29720;SDS011;23665;51.044;3.748;2023-02-03T07:11:26;11.83;;;2.00;;
29720;SDS011;23665;51.044;3.748;2023-02-03T07:13:52;4.10;;;1.23;;
29720;SDS011;23665;51.044;3.748;2023-02-03T07:16:18;5.87;;;1.20;;
29720;SDS011;23665;51.044;3.748;2023-02-03T07:18:44;13.50;;;3.03;;
29720;SDS011;23665;51.044;3.748;2023-02-03T07:21:10;7.63;;;1.73;;
29720;SDS011;23665;51.044;3.748;2023-02-03T07:23:36;9.07;;;1.30;;
29720;SDS011;23665;51.044;3.748;2023-02-03T07:26:03;7.77;;;1.60;;
29720;SDS011;23665;51.044;3.748;2023-02-03T07:28:30;9.37;;;1.90;;
29720;SDS011;23665;51.044;3.748;2023-02-03T07:30:56;4.60;;;1.43;;
29720;SDS011;23665;51.044;3.748;2023-02-03T07:33:22;6.53;;;1.27;;
29720;SDS011;23665;51.044;3.748;2023-02-03T07:35:51;10.70;;;3.07;;
29720;SDS011;23665;51.044;3.748;2023-02-03T07:38:22;4.23;;;1.53;;
29720;SDS011;23665;51.044;3.748;2023-02-03T07:40:48;10.10;;;1.30;;
29720;SDS011;23665;51.044;3.748;2023-02-03T07:43:14;5.97;;;2.17;;
29720;SDS011;23665;51.044;3.748;2023-02-03T07:45:39;6.40;;;1.67;;
29720;SDS011;23665;51.044;3.748;2023-02-03T07:48:05;6.13;;;1.13;;
29720;SDS011;23665;51.044;3.748;2023-02-03T07:50:31;7.20;;;1.27;;
29720;SDS011;23665;51.044;3.748;2023-02-03T07:53:00;5.70;;;1.23;;
29720;SDS011;23665;51.044;3.748;2023-02-03T07:55:26;7.53;;;1.30;;
29720;SDS011;23665;51.044;3.748;2023-02-03T07:57:52;6.20;;;1.37;;
29720;SDS011;23665;51.044;3.748;2023-02-03T08:00:19;5.07;;;1.63;;
29720;SDS011;23665;51.044;3.748;2023-02-03T08:02:45;9.13;;;1.97;;
29720;SDS011;23665;51.044;3.748;2023-02-03T08:05:13;5.37;;;1.20;;
29720;SDS011;23665;51.044;3.748;2023-02-03T08:07:40;4.77;;;1.50;;
29720;SDS011;23665;51.044;3.748;2023-02-03T08:10:06;7.17;;;0.90;;
29720;SDS011;23665;51.044;3.748;2023-02-03T08:12:33;5.77;;;1.23;;
29720;SDS011;23665;51.044;3.748;2023-02-03T08:14:59;6.47;;;1.87;;
29720;SDS011;23665;51.044;3.748;2023-02-03T08:17:25;9.80;;;1.30;;
29720;SDS011;23665;51.044;3.748;2023-02-03T08:19:51;11.03;;;1.80;;
29720;SDS011;23665;51.044;3.748;2023-02-03T08:22:16;9.57;;;1.17;;
29720;SDS011;23665;51.044;3.748;2023-02-03T08:24:43;11.53;;;1.93;;
29720;SDS011;23665;51.044;3.748;2023-02-03T08:27:14;9.80;;;2.60;;
29720;SDS011;23665;51.044;3.748;2023-02-03T08:29:43;4.83;;;1.00;;
29720;SDS011;23665;51.044;3.748;2023-02-03T08:32:10;9.17;;;1.40;;
29720;SDS011;23665;51.044;3.748;2023-02-03T08:34:37;8.43;;;1.83;;
29720;SDS011;23665;51.044;3.748;2023-02-03T08:37:03;6.87;;;1.33;;
29720;SDS011;23665;51.044;3.748;2023-02-03T08:39:30;13.90;;;2.00;;
29720;SDS011;23665;51.044;3.748;2023-02-03T08:41:56;14.43;;;2.10;;
29720;SDS011;23665;51.044;3.748;2023-02-03T08:44:22;7.97;;;2.10;;
29720;SDS011;23665;51.044;3.748;2023-02-03T08:46:49;11.10;;;2.10;;
29720;SDS011;23665;51.044;3.748;2023-02-03T08:49:15;8.20;;;1.73;;
29720;SDS011;23665;51.044;3.748;2023-02-03T08:51:41;7.40;;;2.17;;
29720;SDS011;23665;51.044;3.748;2023-02-03T08:54:07;8.77;;;1.47;;
29720;SDS011;23665;51.044;3.748;2023-02-03T08:56:33;5.87;;;1.50;;
29720;SDS011;23665;51.044;3.748;2023-02-03T08:58:59;8.33;;;1.40;;
29720;SDS011;23665;51.044;3.748;2023-02-03T09:01:25;7.83;;;1.53;;
29720;SDS011;23665;51.044;3.748;2023-02-03T09:03:50;12.47;;;2.30;;
29720;SDS011;23665;51.044;3.748;2023-02-03T09:06:16;4.43;;;1.50;;
29720;SDS011;23665;51.044;3.748;2023-02-03T09:08:43;7.20;;;1.60;;
29720;SDS011;23665;51.044;3.748;2023-02-03T09:11:10;9.70;;;1.80;;
29720;SDS011;23665;51.044;3.748;2023-02-03T09:13:38;6.40;;;1.63;;
29720;SDS011;23665;51.044;3.748;2023-02-03T09:16:05;7.73;;;1.90;;
29720;SDS011;23665;51.044;3.748;2023-02-03T09:18:31;6.10;;;2.00;;
29720;SDS011;23665;51.044;3.748;2023-02-03T09:21:01;5.63;;;2.07;;
29720;SDS011;23665;51.044;3.748;2023-02-03T09:23:32;4.90;;;1.80;;
29720;SDS011;23665;51.044;3.748;2023-02-03T09:26:05;4.97;;;2.07;;
29720;SDS011;23665;51.044;3.748;2023-02-03T09:28:33;9.43;;;2.40;;
29720;SDS011;23665;51.044;3.748;2023-02-03T09:31:00;7.70;;;2.00;;
29720;SDS011;23665;51.044;3.748;2023-02-03T09:33:26;6.67;;;2.30;;
29720;SDS011;23665;51.044;3.748;2023-02-03T09:35:52;6.37;;;2.20;;
29720;SDS011;23665;51.044;3.748;2023-02-03T09:38:19;5.63;;;2.40;;
29720;SDS011;23665;51.044;3.748;2023-02-03T09:40:44;12.60;;;2.40;;
29720;SDS011;23665;51.044;3.748;2023-02-03T09:46:00;7.00;;;2.20;;
29720;SDS011;23665;51.044;3.748;2023-02-03T09:48:32;6.43;;;1.53;;
29720;SDS011;23665;51.044;3.748;2023-02-03T09:51:01;6.20;;;1.70;;
29720;SDS011;23665;51.044;3.748;2023-02-03T09:53:39;9.97;;;1.90;;
29720;SDS011;23665;51.044;3.748;2023-02-03T09:56:16;7.33;;;1.97;;
29720;SDS011;23665;51.044;3.748;2023-02-03T09:58:53;11.97;;;2.20;;
29720;SDS011;23665;51.044;3.748;2023-02-03T10:01:19;6.30;;;1.90;;
29720;SDS011;23665;51.044;3.748;2023-02-03T10:03:50;6.70;;;2.30;;
29720;SDS011;23665;51.044;3.748;2023-02-03T10:06:41;11.57;;;2.10;;
29720;SDS011;23665;51.044;3.748;2023-02-03T10:11:49;8.10;;;1.60;;
29720;SDS011;23665;51.044;3.748;2023-02-03T10:17:32;9.43;;;1.63;;
29720;SDS011;23665;51.044;3.748;2023-02-03T10:25:38;8.87;;;1.90;;
29720;SDS011;23665;51.044;3.748;2023-02-03T10:28:12;8.73;;;2.07;;
29720;SDS011;23665;51.044;3.748;2023-02-03T10:30:56;9.13;;;2.17;;
29720;SDS011;23665;51.044;3.748;2023-02-03T10:33:25;5.70;;;1.87;;
29720;SDS011;23665;51.044;3.748;2023-02-03T10:35:52;8.20;;;1.87;;
29720;SDS011;23665;51.044;3.748;2023-02-03T10:38:43;8.87;;;2.00;;
29720;SDS011;23665;51.044;3.748;2023-02-03T10:41:22;13.00;;;2.30;;
29720;SDS011;23665;51.044;3.748;2023-02-03T10:43:49;23.73;;;4.90;;
29720;SDS011;23665;51.044;3.748;2023-02-03T10:46:20;16.53;;;3.87;;
29720;SDS011;23665;51.044;3.748;2023-02-03T10:48:56;10.40;;;2.03;;
29720;SDS011;23665;51.044;3.748;2023-02-03T10:53:49;5.17;;;1.77;;
29720;SDS011;23665;51.044;3.748;2023-02-03T10:56:18;7.40;;;1.93;;
29720;SDS011;23665;51.044;3.748;2023-02-03T10:58:53;7.57;;;2.00;;
29720;SDS011;23665;51.044;3.748;2023-02-03T11:04:28;8.93;;;1.73;;
29720;SDS011;23665;51.044;3.748;2023-02-03T11:06:56;7.33;;;1.80;;
29720;SDS011;23665;51.044;3.748;2023-02-03T11:12:05;6.90;;;2.10;;
29720;SDS011;23665;51.044;3.748;2023-02-03T11:14:37;8.13;;;2.10;;
29720;SDS011;23665;51.044;3.748;2023-02-03T11:17:08;18.23;;;3.70;;
29720;SDS011;23665;51.044;3.748;2023-02-03T11:19:41;6.90;;;1.93;;
29720;SDS011;23665;51.044;3.748;2023-02-03T11:22:09;8.13;;;1.87;;
29720;SDS011;23665;51.044;3.748;2023-02-03T11:24:39;6.30;;;2.10;;
29720;SDS011;23665;51.044;3.748;2023-02-03T11:27:16;6.33;;;1.53;;
29720;SDS011;23665;51.044;3.748;2023-02-03T11:29:44;5.33;;;2.30;;
29720;SDS011;23665;51.044;3.748;2023-02-03T11:32:17;7.27;;;1.90;;
29720;SDS011;23665;51.044;3.748;2023-02-03T11:37:46;11.30;;;2.03;;
29720;SDS011;23665;51.044;3.748;2023-02-03T11:47:46;7.13;;;1.50;;
29720;SDS011;23665;51.044;3.748;2023-02-03T11:50:28;5.63;;;1.90;;
29720;SDS011;23665;51.044;3.748;2023-02-03T12:07:34;3.70;;;1.00;;
29720;SDS011;23665;51.044;3.748;2023-02-03T12:15:42;5.80;;;1.20;;
29720;SDS011;23665;51.044;3.748;2023-02-03T12:29:55;5.00;;;1.30;;
29720;SDS011;23665;51.044;3.748;2023-02-03T12:32:33;5.37;;;1.20;;
29720;SDS011;23665;51.044;3.748;2023-02-03T12:35:14;7.37;;;1.67;;
29720;SDS011;23665;51.044;3.748;2023-02-03T12:40:58;3.63;;;1.37;;
29720;SDS011;23665;51.044;3.748;2023-02-03T12:49:22;4.77;;;1.27;;
29720;SDS011;23665;51.044;3.748;2023-02-03T12:54:55;6.10;;;1.20;;
29720;SDS011;23665;51.044;3.748;2023-02-03T12:58:05;3.87;;;1.07;;
29720;SDS011;23665;51.044;3.748;2023-02-03T13:09:40;7.03;;;1.87;;
29720;SDS011;23665;51.044;3.748;2023-02-03T13:12:40;6.43;;;1.40;;
29720;SDS011;23665;51.044;3.748;2023-02-03T13:20:26;7.13;;;1.27;;
29720;SDS011;23665;51.044;3.748;2023-02-03T13:22:55;5.60;;;1.60;;
29720;SDS011;23665;51.044;3.748;2023-02-03T13:25:26;8.20;;;1.57;;
29720;SDS011;23665;51.044;3.748;2023-02-03T13:42:19;4.73;;;1.20;;
29720;SDS011;23665;51.044;3.748;2023-02-03T13:45:35;3.53;;;1.30;;
29720;SDS011;23665;51.044;3.748;2023-02-03T13:47:50;4.17;;;1.20;;
29720;SDS011;23665;51.044;3.748;2023-02-03T13:50:23;7.03;;;1.10;;
29720;SDS011;23665;51.044;3.748;2023-02-03T13:55:27;6.33;;;1.83;;
29720;SDS011;23665;51.044;3.748;2023-02-03T13:57:57;5.97;;;1.60;;
29720;SDS011;23665;51.044;3.748;2023-02-03T14:03:41;6.10;;;1.23;;
29720;SDS011;23665;51.044;3.748;2023-02-03T14:05:59;4.43;;;1.37;;
29720;SDS011;23665;51.044;3.748;2023-02-03T14:16:47;6.57;;;1.70;;
29720;SDS011;23665;51.044;3.748;2023-02-03T14:24:15;5.80;;;1.20;;
29720;SDS011;23665;51.044;3.748;2023-02-03T14:26:46;5.17;;;1.57;;
29720;SDS011;23665;51.044;3.748;2023-02-03T14:29:30;5.90;;;1.87;;
29720;SDS011;23665;51.044;3.748;2023-02-03T14:34:43;3.37;;;1.33;;
29720;SDS011;23665;51.044;3.748;2023-02-03T14:37:20;5.00;;;1.40;;
29720;SDS011;23665;51.044;3.748;2023-02-03T14:53:54;4.33;;;1.80;;
29720;SDS011;23665;51.044;3.748;2023-02-03T14:56:43;7.87;;;1.40;;
29720;SDS011;23665;51.044;3.748;2023-02-03T14:59:43;5.73;;;1.67;;
29720;SDS011;23665;51.044;3.748;2023-02-03T15:02:16;3.73;;;1.60;;
29720;SDS011;23665;51.044;3.748;2023-02-03T15:04:44;5.03;;;1.50;;
29720;SDS011;23665;51.044;3.748;2023-02-03T15:10:00;7.53;;;2.03;;
29720;SDS011;23665;51.044;3.748;2023-02-03T15:12:26;7.30;;;1.40;;
29720;SDS011;23665;51.044;3.748;2023-02-03T15:14:53;6.17;;;2.00;;
29720;SDS011;23665;51.044;3.748;2023-02-03T15:17:45;4.20;;;1.60;;
29720;SDS011;23665;51.044;3.748;2023-02-03T15:20:27;10.53;;;1.50;;
29720;SDS011;23665;51.044;3.748;2023-02-03T15:22:58;3.60;;;1.37;;
29720;SDS011;23665;51.044;3.748;2023-02-03T15:25:25;3.30;;;1.87;;
29720;SDS011;23665;51.044;3.748;2023-02-03T15:27:53;5.60;;;1.50;;
29720;SDS011;23665;51.044;3.748;2023-02-03T15:30:33;4.80;;;1.47;;
29720;SDS011;23665;51.044;3.748;2023-02-03T15:33:00;6.30;;;2.00;;
29720;SDS011;23665;51.044;3.748;2023-02-03T15:35:33;4.23;;;1.20;;
29720;SDS011;23665;51.044;3.748;2023-02-03T15:38:09;12.33;;;2.03;;
29720;SDS011;23665;51.044;3.748;2023-02-03T15:40:41;5.20;;;1.40;;
29720;SDS011;23665;51.044;3.748;2023-02-03T15:45:41;6.73;;;1.20;;
29720;SDS011;23665;51.044;3.748;2023-02-03T15:48:52;8.73;;;1.90;;
29720;SDS011;23665;51.044;3.748;2023-02-03T15:56:56;10.50;;;2.80;;
29720;SDS011;23665;51.044;3.748;2023-02-03T15:59:35;7.57;;;2.37;;
29720;SDS011;23665;51.044;3.748;2023-02-03T16:05:02;5.03;;;2.00;;
29720;SDS011;23665;51.044;3.748;2023-02-03T16:07:41;9.70;;;1.63;;
29720;SDS011;23665;51.044;3.748;2023-02-03T16:10:22;8.17;;;1.93;;
29720;SDS011;23665;51.044;3.748;2023-02-03T16:12:52;10.10;;;2.03;;
29720;SDS011;23665;51.044;3.748;2023-02-03T16:15:33;10.33;;;2.40;;
29720;SDS011;23665;51.044;3.748;2023-02-03T16:18:00;16.93;;;4.07;;
29720;SDS011;23665;51.044;3.748;2023-02-03T16:20:26;6.87;;;2.33;;
29720;SDS011;23665;51.044;3.748;2023-02-03T16:23:04;5.97;;;2.53;;
29720;SDS011;23665;51.044;3.748;2023-02-03T16:25:41;9.17;;;2.40;;
29720;SDS011;23665;51.044;3.748;2023-02-03T16:31:01;6.00;;;2.20;;
29720;SDS011;23665;51.044;3.748;2023-02-03T16:33:59;5.77;;;1.97;;
29720;SDS011;23665;51.044;3.748;2023-02-03T16:36:45;4.53;;;2.13;;
29720;SDS011;23665;51.044;3.748;2023-02-03T16:39:29;9.50;;;2.50;;
29720;SDS011;23665;51.044;3.748;2023-02-03T16:42:19;5.43;;;1.90;;
29720;SDS011;23665;51.044;3.748;2023-02-03T16:45:22;6.33;;;2.13;;
29720;SDS011;23665;51.044;3.748;2023-02-03T16:48:08;7.77;;;2.20;;
29720;SDS011;23665;51.044;3.748;2023-02-03T16:50:54;5.73;;;2.20;;
29720;SDS011;23665;51.044;3.748;2023-02-03T16:53:22;9.80;;;2.90;;
29720;SDS011;23665;51.044;3.748;2023-02-03T16:55:50;4.30;;;2.27;;
29720;SDS011;23665;51.044;3.748;2023-02-03T16:58:18;5.07;;;2.50;;
29720;SDS011;23665;51.044;3.748;2023-02-03T17:00:44;3.87;;;1.97;;
29720;SDS011;23665;51.044;3.748;2023-02-03T17:03:12;9.20;;;4.23;;
29720;SDS011;23665;51.044;3.748;2023-02-03T17:05:40;9.67;;;2.67;;
29720;SDS011;23665;51.044;3.748;2023-02-03T17:08:07;6.73;;;2.47;;
29720;SDS011;23665;51.044;3.748;2023-02-03T17:10:33;8.03;;;2.60;;
29720;SDS011;23665;51.044;3.748;2023-02-03T17:13:01;7.23;;;2.60;;
29720;SDS011;23665;51.044;3.748;2023-02-03T17:15:27;5.40;;;2.17;;
29720;SDS011;23665;51.044;3.748;2023-02-03T17:17:52;7.40;;;2.60;;
29720;SDS011;23665;51.044;3.748;2023-02-03T17:20:18;11.90;;;3.20;;
29720;SDS011;23665;51.044;3.748;2023-02-03T17:22:44;5.37;;;2.30;;
29720;SDS011;23665;51.044;3.748;2023-02-03T17:25:10;8.47;;;2.87;;
29720;SDS011;23665;51.044;3.748;2023-02-03T17:27:36;8.30;;;3.17;;
29720;SDS011;23665;51.044;3.748;2023-02-03T17:30:01;7.03;;;2.30;;
29720;SDS011;23665;51.044;3.748;2023-02-03T17:32:28;9.30;;;2.87;;
29720;SDS011;23665;51.044;3.748;2023-02-03T17:34:54;8.73;;;2.70;;
29720;SDS011;23665;51.044;3.748;2023-02-03T17:37:19;8.57;;;3.07;;
29720;SDS011;23665;51.044;3.748;2023-02-03T17:39:45;11.13;;;3.30;;
29720;SDS011;23665;51.044;3.748;2023-02-03T17:42:11;10.13;;;3.27;;
29720;SDS011;23665;51.044;3.748;2023-02-03T17:44:36;7.13;;;2.90;;
29720;SDS011;23665;51.044;3.748;2023-02-03T17:47:02;8.23;;;3.13;;
29720;SDS011;23665;51.044;3.748;2023-02-03T17:49:29;10.87;;;4.77;;
29720;SDS011;23665;51.044;3.748;2023-02-03T17:51:54;8.63;;;3.20;;
29720;SDS011;23665;51.044;3.748;2023-02-03T17:54:20;10.60;;;3.53;;
29720;SDS011;23665;51.044;3.748;2023-02-03T17:56:46;6.57;;;3.10;;
29720;SDS011;23665;51.044;3.748;2023-02-03T17:59:13;9.23;;;2.90;;
29720;SDS011;23665;51.044;3.748;2023-02-03T18:01:39;14.83;;;3.30;;